sensor_id;sensor_type;location;lat;lon;timestamp;temperature;humidity
16666;DHT22;8446;50.998;6.250;2023-08-31T00:00:53;12.00;99.90
16666;DHT22;8446;50.998;6.250;2023-08-31T00:03:20;12.00;99.90
16666;DHT22;8446;50.998;6.250;2023-08-31T00:05:46;12.00;99.90
16666;DHT22;8446;50.998;6.250;2023-08-31T00:08:16;11.90;99.90
16666;DHT22;8446;50.998;6.250;2023-08-31T00:10:43;11.80;99.90
16666;DHT22;8446;50.998;6.250;2023-08-31T00:13:11;11.80;99.90
16666;DHT22;8446;50.998;6.250;2023-08-31T00:15:38;11.80;99.90
16666;DHT22;8446;50.998;6.250;2023-08-31T00:18:06;11.90;99.90
16666;DHT22;8446;50.998;6.250;2023-08-31T00:20:33;11.80;99.90
16666;DHT22;8446;50.998;6.250;2023-08-31T00:23:00;11.70;99.90
16666;DHT22;8446;50.998;6.250;2023-08-31T00:25:27;11.70;99.90
16666;DHT22;8446;50.998;6.250;2023-08-31T00:27:54;11.70;99.90
16666;DHT22;8446;50.998;6.250;2023-08-31T00:30:23;11.60;99.90
16666;DHT22;8446;50.998;6.250;2023-08-31T00:32:55;11.60;99.90
16666;DHT22;8446;50.998;6.250;2023-08-31T00:35:25;11.50;99.90
16666;DHT22;8446;50.998;6.250;2023-08-31T00:37:53;11.40;99.90
16666;DHT22;8446;50.998;6.250;2023-08-31T00:40:22;11.30;99.90
16666;DHT22;8446;50.998;6.250;2023-08-31T00:42:49;11.30;99.90
16666;DHT22;8446;50.998;6.250;2023-08-31T00:45:17;11.30;99.90
16666;DHT22;8446;50.998;6.250;2023-08-31T00:47:46;11.30;99.90
16666;DHT22;8446;50.998;6.250;2023-08-31T00:50:14;11.10;99.90
16666;DHT22;8446;50.998;6.250;2023-08-31T00:52:42;11.10;99.90
16666;DHT22;8446;50.998;6.250;2023-08-31T00:55:10;10.90;99.90
16666;DHT22;8446;50.998;6.250;2023-08-31T00:57:37;10.90;99.90
16666;DHT22;8446;50.998;6.250;2023-08-31T01:00:07;11.00;99.90
16666;DHT22;8446;50.998;6.250;2023-08-31T01:02:39;11.00;99.90
16666;DHT22;8446;50.998;6.250;2023-08-31T01:05:24;11.00;99.90
16666;DHT22;8446;50.998;6.250;2023-08-31T01:07:57;11.10;99.90
16666;DHT22;8446;50.998;6.250;2023-08-31T01:10:29;11.00;99.90
16666;DHT22;8446;50.998;6.250;2023-08-31T01:13:02;11.10;99.90
16666;DHT22;8446;50.998;6.250;2023-08-31T01:15:31;11.10;99.90
16666;DHT22;8446;50.998;6.250;2023-08-31T01:17:59;11.10;99.90
16666;DHT22;8446;50.998;6.250;2023-08-31T01:20:44;11.10;99.90
16666;DHT22;8446;50.998;6.250;2023-08-31T01:23:16;11.00;99.90
16666;DHT22;8446;50.998;6.250;2023-08-31T01:25:47;11.00;99.90
16666;DHT22;8446;50.998;6.250;2023-08-31T01:28:14;10.90;99.90
16666;DHT22;8446;50.998;6.250;2023-08-31T01:30:41;11.00;99.90
16666;DHT22;8446;50.998;6.250;2023-08-31T01:33:08;11.20;99.90
16666;DHT22;8446;50.998;6.250;2023-08-31T01:35:40;11.10;99.90
16666;DHT22;8446;50.998;6.250;2023-08-31T01:38:10;11.10;99.90
16666;DHT22;8446;50.998;6.250;2023-08-31T01:40:40;11.10;99.90
16666;DHT22;8446;50.998;6.250;2023-08-31T01:43:10;11.00;99.90
16666;DHT22;8446;50.998;6.250;2023-08-31T01:45:38;11.00;99.90
16666;DHT22;8446;50.998;6.250;2023-08-31T01:48:06;11.10;99.90
16666;DHT22;8446;50.998;6.250;2023-08-31T01:50:33;11.20;99.90
16666;DHT22;8446;50.998;6.250;2023-08-31T01:52:59;11.20;99.90
16666;DHT22;8446;50.998;6.250;2023-08-31T01:55:26;11.10;99.90
16666;DHT22;8446;50.998;6.250;2023-08-31T01:57:53;11.20;99.90
16666;DHT22;8446;50.998;6.250;2023-08-31T02:00:21;11.10;99.90
16666;DHT22;8446;50.998;6.250;2023-08-31T02:02:48;11.00;99.90
16666;DHT22;8446;50.998;6.250;2023-08-31T02:05:15;10.80;99.90
16666;DHT22;8446;50.998;6.250;2023-08-31T02:07:41;10.90;99.90
16666;DHT22;8446;50.998;6.250;2023-08-31T02:10:09;10.90;99.90
16666;DHT22;8446;50.998;6.250;2023-08-31T02:12:36;10.90;99.90
16666;DHT22;8446;50.998;6.250;2023-08-31T02:15:04;10.90;99.90
16666;DHT22;8446;50.998;6.250;2023-08-31T02:17:34;10.80;99.90
16666;DHT22;8446;50.998;6.250;2023-08-31T02:20:00;10.80;99.90
16666;DHT22;8446;50.998;6.250;2023-08-31T02:22:30;10.80;99.90
16666;DHT22;8446;50.998;6.250;2023-08-31T02:24:57;10.80;99.90
16666;DHT22;8446;50.998;6.250;2023-08-31T02:27:24;10.70;99.90
16666;DHT22;8446;50.998;6.250;2023-08-31T02:29:50;10.80;99.90
16666;DHT22;8446;50.998;6.250;2023-08-31T02:32:17;10.80;99.90
16666;DHT22;8446;50.998;6.250;2023-08-31T02:34:45;10.80;99.90
16666;DHT22;8446;50.998;6.250;2023-08-31T02:37:12;10.90;99.90
16666;DHT22;8446;50.998;6.250;2023-08-31T02:39:39;10.90;99.90
16666;DHT22;8446;50.998;6.250;2023-08-31T02:42:06;10.90;99.90
16666;DHT22;8446;50.998;6.250;2023-08-31T02:44:33;10.90;99.90
16666;DHT22;8446;50.998;6.250;2023-08-31T02:47:00;10.90;99.90
16666;DHT22;8446;50.998;6.250;2023-08-31T02:49:27;10.90;99.90
16666;DHT22;8446;50.998;6.250;2023-08-31T02:51:55;10.80;99.90
16666;DHT22;8446;50.998;6.250;2023-08-31T02:54:22;10.70;99.90
16666;DHT22;8446;50.998;6.250;2023-08-31T02:56:49;10.70;99.90
16666;DHT22;8446;50.998;6.250;2023-08-31T02:59:16;10.70;99.90
16666;DHT22;8446;50.998;6.250;2023-08-31T03:01:43;10.60;99.90
16666;DHT22;8446;50.998;6.250;2023-08-31T03:04:11;10.60;99.90
16666;DHT22;8446;50.998;6.250;2023-08-31T03:06:38;10.50;99.90
16666;DHT22;8446;50.998;6.250;2023-08-31T03:09:06;10.50;99.90
16666;DHT22;8446;50.998;6.250;2023-08-31T03:11:33;10.50;99.90
16666;DHT22;8446;50.998;6.250;2023-08-31T03:14:00;10.40;99.90
16666;DHT22;8446;50.998;6.250;2023-08-31T03:16:27;10.40;99.90
16666;DHT22;8446;50.998;6.250;2023-08-31T03:18:54;10.40;99.90
16666;DHT22;8446;50.998;6.250;2023-08-31T03:21:21;10.40;99.90
16666;DHT22;8446;50.998;6.250;2023-08-31T03:23:48;10.40;99.90
16666;DHT22;8446;50.998;6.250;2023-08-31T03:26:16;10.30;99.90
16666;DHT22;8446;50.998;6.250;2023-08-31T03:28:43;10.30;99.90
16666;DHT22;8446;50.998;6.250;2023-08-31T03:31:10;10.30;99.90
16666;DHT22;8446;50.998;6.250;2023-08-31T03:33:36;10.30;99.90
16666;DHT22;8446;50.998;6.250;2023-08-31T03:36:03;10.20;99.90
16666;DHT22;8446;50.998;6.250;2023-08-31T03:38:30;10.30;99.90
16666;DHT22;8446;50.998;6.250;2023-08-31T03:40:57;10.40;99.90
16666;DHT22;8446;50.998;6.250;2023-08-31T03:43:26;10.30;99.90
16666;DHT22;8446;50.998;6.250;2023-08-31T03:45:56;10.40;99.90
16666;DHT22;8446;50.998;6.250;2023-08-31T03:48:23;10.40;99.90
16666;DHT22;8446;50.998;6.250;2023-08-31T03:50:50;10.30;99.90
16666;DHT22;8446;50.998;6.250;2023-08-31T03:53:17;10.30;99.90
16666;DHT22;8446;50.998;6.250;2023-08-31T03:55:44;10.40;99.90
16666;DHT22;8446;50.998;6.250;2023-08-31T03:58:11;10.50;99.90
16666;DHT22;8446;50.998;6.250;2023-08-31T04:00:39;10.50;99.90
16666;DHT22;8446;50.998;6.250;2023-08-31T04:03:06;10.60;99.90
16666;DHT22;8446;50.998;6.250;2023-08-31T04:05:33;10.60;99.90
16666;DHT22;8446;50.998;6.250;2023-08-31T04:08:01;10.60;99.90
16666;DHT22;8446;50.998;6.250;2023-08-31T04:10:28;10.70;99.90
16666;DHT22;8446;50.998;6.250;2023-08-31T04:12:57;10.80;99.90
16666;DHT22;8446;50.998;6.250;2023-08-31T04:15:24;10.80;99.90
16666;DHT22;8446;50.998;6.250;2023-08-31T04:17:52;10.90;99.90
16666;DHT22;8446;50.998;6.250;2023-08-31T04:20:19;10.90;99.90
16666;DHT22;8446;50.998;6.250;2023-08-31T04:22:45;10.90;99.90
16666;DHT22;8446;50.998;6.250;2023-08-31T04:25:12;10.80;99.90
16666;DHT22;8446;50.998;6.250;2023-08-31T04:27:39;10.90;99.90
16666;DHT22;8446;50.998;6.250;2023-08-31T04:30:07;11.00;99.90
16666;DHT22;8446;50.998;6.250;2023-08-31T04:32:34;10.90;99.90
16666;DHT22;8446;50.998;6.250;2023-08-31T04:35:02;11.00;99.90
16666;DHT22;8446;50.998;6.250;2023-08-31T04:37:31;10.90;99.90
16666;DHT22;8446;50.998;6.250;2023-08-31T04:39:58;11.10;99.90
16666;DHT22;8446;50.998;6.250;2023-08-31T04:42:25;11.20;99.90
16666;DHT22;8446;50.998;6.250;2023-08-31T04:44:52;11.10;99.90
16666;DHT22;8446;50.998;6.250;2023-08-31T04:47:18;11.20;99.90
16666;DHT22;8446;50.998;6.250;2023-08-31T04:49:45;11.10;99.90
16666;DHT22;8446;50.998;6.250;2023-08-31T04:52:14;11.10;99.90
16666;DHT22;8446;50.998;6.250;2023-08-31T04:54:40;11.10;99.90
16666;DHT22;8446;50.998;6.250;2023-08-31T04:57:07;11.30;99.90
16666;DHT22;8446;50.998;6.250;2023-08-31T04:59:35;11.30;99.90
16666;DHT22;8446;50.998;6.250;2023-08-31T05:02:02;11.30;99.90
16666;DHT22;8446;50.998;6.250;2023-08-31T05:04:29;11.30;99.90
16666;DHT22;8446;50.998;6.250;2023-08-31T05:06:56;11.20;99.90
16666;DHT22;8446;50.998;6.250;2023-08-31T05:09:25;11.20;99.90
16666;DHT22;8446;50.998;6.250;2023-08-31T05:11:52;11.20;99.90
16666;DHT22;8446;50.998;6.250;2023-08-31T05:14:19;11.30;99.90
16666;DHT22;8446;50.998;6.250;2023-08-31T05:16:45;11.40;99.90
16666;DHT22;8446;50.998;6.250;2023-08-31T05:19:12;11.40;99.90
16666;DHT22;8446;50.998;6.250;2023-08-31T05:21:39;11.40;99.90
16666;DHT22;8446;50.998;6.250;2023-08-31T05:24:06;11.50;99.90
16666;DHT22;8446;50.998;6.250;2023-08-31T05:26:34;11.50;99.90
16666;DHT22;8446;50.998;6.250;2023-08-31T05:29:01;11.50;99.90
16666;DHT22;8446;50.998;6.250;2023-08-31T05:31:30;11.50;99.90
16666;DHT22;8446;50.998;6.250;2023-08-31T05:33:57;11.50;99.90
16666;DHT22;8446;50.998;6.250;2023-08-31T05:36:24;11.50;99.90
16666;DHT22;8446;50.998;6.250;2023-08-31T05:38:51;11.70;99.90
16666;DHT22;8446;50.998;6.250;2023-08-31T05:41:18;11.70;99.90
16666;DHT22;8446;50.998;6.250;2023-08-31T05:43:46;11.70;99.90
16666;DHT22;8446;50.998;6.250;2023-08-31T05:46:13;11.70;99.90
16666;DHT22;8446;50.998;6.250;2023-08-31T05:48:40;11.80;99.90
16666;DHT22;8446;50.998;6.250;2023-08-31T05:51:07;11.80;99.90
16666;DHT22;8446;50.998;6.250;2023-08-31T05:53:34;11.80;99.90
16666;DHT22;8446;50.998;6.250;2023-08-31T05:56:01;11.90;99.90
16666;DHT22;8446;50.998;6.250;2023-08-31T05:58:30;11.90;99.90
16666;DHT22;8446;50.998;6.250;2023-08-31T06:00:59;12.10;99.90
16666;DHT22;8446;50.998;6.250;2023-08-31T06:03:26;12.10;99.90
16666;DHT22;8446;50.998;6.250;2023-08-31T06:05:53;12.20;99.90
16666;DHT22;8446;50.998;6.250;2023-08-31T06:08:20;12.20;99.90
16666;DHT22;8446;50.998;6.250;2023-08-31T06:10:46;12.30;99.90
16666;DHT22;8446;50.998;6.250;2023-08-31T06:13:13;12.50;99.90
16666;DHT22;8446;50.998;6.250;2023-08-31T06:15:40;12.50;99.90
16666;DHT22;8446;50.998;6.250;2023-08-31T06:18:08;12.60;99.90
16666;DHT22;8446;50.998;6.250;2023-08-31T06:20:35;12.60;99.90
16666;DHT22;8446;50.998;6.250;2023-08-31T06:23:02;12.70;99.90
16666;DHT22;8446;50.998;6.250;2023-08-31T06:25:29;12.80;99.90
16666;DHT22;8446;50.998;6.250;2023-08-31T06:27:56;12.90;99.90
16666;DHT22;8446;50.998;6.250;2023-08-31T06:30:23;12.90;99.90
16666;DHT22;8446;50.998;6.250;2023-08-31T06:32:50;13.00;99.90
16666;DHT22;8446;50.998;6.250;2023-08-31T06:35:18;13.00;99.90
16666;DHT22;8446;50.998;6.250;2023-08-31T06:37:45;13.10;99.90
16666;DHT22;8446;50.998;6.250;2023-08-31T06:40:12;13.10;99.90
16666;DHT22;8446;50.998;6.250;2023-08-31T06:42:39;13.20;99.90
16666;DHT22;8446;50.998;6.250;2023-08-31T06:45:07;13.30;99.90
16666;DHT22;8446;50.998;6.250;2023-08-31T06:47:34;13.40;99.90
16666;DHT22;8446;50.998;6.250;2023-08-31T06:50:01;13.50;99.90
16666;DHT22;8446;50.998;6.250;2023-08-31T06:52:30;13.60;99.90
16666;DHT22;8446;50.998;6.250;2023-08-31T06:54:57;13.70;99.90
16666;DHT22;8446;50.998;6.250;2023-08-31T06:57:24;13.70;99.90
16666;DHT22;8446;50.998;6.250;2023-08-31T06:59:52;13.80;99.90
16666;DHT22;8446;50.998;6.250;2023-08-31T07:02:19;13.90;99.90
16666;DHT22;8446;50.998;6.250;2023-08-31T07:04:47;13.90;99.90
16666;DHT22;8446;50.998;6.250;2023-08-31T07:07:15;13.90;99.90
16666;DHT22;8446;50.998;6.250;2023-08-31T07:09:44;14.00;99.90
16666;DHT22;8446;50.998;6.250;2023-08-31T07:12:11;14.20;99.90
16666;DHT22;8446;50.998;6.250;2023-08-31T07:14:38;14.20;99.90
16666;DHT22;8446;50.998;6.250;2023-08-31T07:17:05;14.30;99.90
16666;DHT22;8446;50.998;6.250;2023-08-31T07:19:31;14.30;99.90
16666;DHT22;8446;50.998;6.250;2023-08-31T07:22:01;14.40;99.90
16666;DHT22;8446;50.998;6.250;2023-08-31T07:24:29;14.50;99.90
16666;DHT22;8446;50.998;6.250;2023-08-31T07:26:58;14.60;99.90
16666;DHT22;8446;50.998;6.250;2023-08-31T07:29:24;14.60;99.90
16666;DHT22;8446;50.998;6.250;2023-08-31T07:31:51;14.70;99.90
16666;DHT22;8446;50.998;6.250;2023-08-31T07:34:18;14.60;99.90
16666;DHT22;8446;50.998;6.250;2023-08-31T07:36:45;14.70;99.90
16666;DHT22;8446;50.998;6.250;2023-08-31T07:39:12;14.60;99.90
16666;DHT22;8446;50.998;6.250;2023-08-31T07:41:39;14.70;99.90
16666;DHT22;8446;50.998;6.250;2023-08-31T07:44:07;14.70;99.90
16666;DHT22;8446;50.998;6.250;2023-08-31T07:46:34;14.70;99.90
16666;DHT22;8446;50.998;6.250;2023-08-31T07:49:00;14.90;99.90
16666;DHT22;8446;50.998;6.250;2023-08-31T07:51:28;15.00;99.90
16666;DHT22;8446;50.998;6.250;2023-08-31T07:53:55;15.00;99.90
16666;DHT22;8446;50.998;6.250;2023-08-31T07:56:22;15.10;99.90
16666;DHT22;8446;50.998;6.250;2023-08-31T07:58:49;15.30;99.90
16666;DHT22;8446;50.998;6.250;2023-08-31T08:01:17;15.20;99.90
16666;DHT22;8446;50.998;6.250;2023-08-31T08:03:44;15.30;99.90
16666;DHT22;8446;50.998;6.250;2023-08-31T08:06:11;15.40;99.90
16666;DHT22;8446;50.998;6.250;2023-08-31T08:08:38;15.50;99.90
16666;DHT22;8446;50.998;6.250;2023-08-31T08:11:05;15.50;99.90
16666;DHT22;8446;50.998;6.250;2023-08-31T08:13:33;15.60;99.90
16666;DHT22;8446;50.998;6.250;2023-08-31T08:16:00;15.80;99.90
16666;DHT22;8446;50.998;6.250;2023-08-31T08:18:30;15.70;99.90
16666;DHT22;8446;50.998;6.250;2023-08-31T08:20:56;15.80;99.90
16666;DHT22;8446;50.998;6.250;2023-08-31T08:23:23;15.90;99.90
16666;DHT22;8446;50.998;6.250;2023-08-31T08:25:50;16.00;99.90
16666;DHT22;8446;50.998;6.250;2023-08-31T08:28:17;16.10;99.90
16666;DHT22;8446;50.998;6.250;2023-08-31T08:30:43;16.20;99.90
16666;DHT22;8446;50.998;6.250;2023-08-31T08:33:10;16.10;99.90
16666;DHT22;8446;50.998;6.250;2023-08-31T08:35:38;16.00;99.90
16666;DHT22;8446;50.998;6.250;2023-08-31T08:38:05;16.00;99.90
16666;DHT22;8446;50.998;6.250;2023-08-31T08:40:32;16.20;99.90
16666;DHT22;8446;50.998;6.250;2023-08-31T08:43:00;16.10;99.90
16666;DHT22;8446;50.998;6.250;2023-08-31T08:45:33;16.40;99.90
16666;DHT22;8446;50.998;6.250;2023-08-31T08:48:03;16.50;99.90
16666;DHT22;8446;50.998;6.250;2023-08-31T08:50:31;16.60;99.90
16666;DHT22;8446;50.998;6.250;2023-08-31T08:53:00;16.50;99.90
16666;DHT22;8446;50.998;6.250;2023-08-31T08:55:27;16.60;99.90
16666;DHT22;8446;50.998;6.250;2023-08-31T08:57:54;16.70;99.90
16666;DHT22;8446;50.998;6.250;2023-08-31T09:00:22;16.70;99.90
16666;DHT22;8446;50.998;6.250;2023-08-31T09:02:48;16.60;99.90
16666;DHT22;8446;50.998;6.250;2023-08-31T09:05:15;16.90;99.90
16666;DHT22;8446;50.998;6.250;2023-08-31T09:08:02;17.10;99.90
16666;DHT22;8446;50.998;6.250;2023-08-31T09:10:40;16.90;99.90
16666;DHT22;8446;50.998;6.250;2023-08-31T09:13:08;16.90;99.90
16666;DHT22;8446;50.998;6.250;2023-08-31T09:15:43;17.00;99.90
16666;DHT22;8446;50.998;6.250;2023-08-31T09:18:16;16.90;99.90
16666;DHT22;8446;50.998;6.250;2023-08-31T09:20:49;16.80;99.90
16666;DHT22;8446;50.998;6.250;2023-08-31T09:23:17;17.20;99.90
16666;DHT22;8446;50.998;6.250;2023-08-31T09:25:46;17.20;99.90
16666;DHT22;8446;50.998;6.250;2023-08-31T09:28:14;17.30;99.90
16666;DHT22;8446;50.998;6.250;2023-08-31T09:30:42;17.40;99.90
16666;DHT22;8446;50.998;6.250;2023-08-31T09:33:13;17.70;99.90
16666;DHT22;8446;50.998;6.250;2023-08-31T09:35:47;17.80;99.90
16666;DHT22;8446;50.998;6.250;2023-08-31T09:38:16;17.80;99.90
16666;DHT22;8446;50.998;6.250;2023-08-31T09:40:43;17.80;99.90
16666;DHT22;8446;50.998;6.250;2023-08-31T09:43:10;17.90;99.90
16666;DHT22;8446;50.998;6.250;2023-08-31T09:45:37;17.90;99.90
16666;DHT22;8446;50.998;6.250;2023-08-31T09:48:05;17.60;99.90
16666;DHT22;8446;50.998;6.250;2023-08-31T09:50:33;17.80;99.90
16666;DHT22;8446;50.998;6.250;2023-08-31T09:53:01;18.40;99.90
16666;DHT22;8446;50.998;6.250;2023-08-31T09:55:31;18.00;99.90
16666;DHT22;8446;50.998;6.250;2023-08-31T09:58:00;17.90;99.90
16666;DHT22;8446;50.998;6.250;2023-08-31T10:00:29;17.90;99.90
16666;DHT22;8446;50.998;6.250;2023-08-31T10:02:58;17.80;99.90
16666;DHT22;8446;50.998;6.250;2023-08-31T10:05:26;17.50;99.90
16666;DHT22;8446;50.998;6.250;2023-08-31T10:07:53;17.70;99.90
16666;DHT22;8446;50.998;6.250;2023-08-31T10:10:21;17.40;99.90
16666;DHT22;8446;50.998;6.250;2023-08-31T10:12:50;18.30;99.90
16666;DHT22;8446;50.998;6.250;2023-08-31T10:15:17;18.10;99.90
16666;DHT22;8446;50.998;6.250;2023-08-31T10:17:45;17.50;99.90
16666;DHT22;8446;50.998;6.250;2023-08-31T10:20:14;17.70;99.90
16666;DHT22;8446;50.998;6.250;2023-08-31T10:22:41;18.20;99.90
16666;DHT22;8446;50.998;6.250;2023-08-31T10:25:09;18.60;99.90
16666;DHT22;8446;50.998;6.250;2023-08-31T10:27:37;18.50;99.90
16666;DHT22;8446;50.998;6.250;2023-08-31T10:30:26;18.50;99.90
16666;DHT22;8446;50.998;6.250;2023-08-31T10:33:22;18.70;99.90
16666;DHT22;8446;50.998;6.250;2023-08-31T10:35:50;18.90;99.90
16666;DHT22;8446;50.998;6.250;2023-08-31T10:38:24;19.20;99.90
16666;DHT22;8446;50.998;6.250;2023-08-31T10:41:18;19.30;99.90
16666;DHT22;8446;50.998;6.250;2023-08-31T10:43:50;18.80;99.90
16666;DHT22;8446;50.998;6.250;2023-08-31T10:46:29;18.80;99.90
16666;DHT22;8446;50.998;6.250;2023-08-31T10:48:57;18.90;99.90
16666;DHT22;8446;50.998;6.250;2023-08-31T10:51:26;18.70;99.90
16666;DHT22;8446;50.998;6.250;2023-08-31T10:54:04;18.30;99.90
16666;DHT22;8446;50.998;6.250;2023-08-31T10:56:32;18.60;99.90
16666;DHT22;8446;50.998;6.250;2023-08-31T10:58:59;18.90;99.90
16666;DHT22;8446;50.998;6.250;2023-08-31T11:01:52;18.60;99.90
16666;DHT22;8446;50.998;6.250;2023-08-31T11:04:20;18.50;99.90
16666;DHT22;8446;50.998;6.250;2023-08-31T11:06:47;18.10;99.90
16666;DHT22;8446;50.998;6.250;2023-08-31T11:09:18;18.40;99.90
16666;DHT22;8446;50.998;6.250;2023-08-31T11:11:45;19.10;99.90
16666;DHT22;8446;50.998;6.250;2023-08-31T11:14:12;19.30;99.90
16666;DHT22;8446;50.998;6.250;2023-08-31T11:16:39;18.70;99.90
16666;DHT22;8446;50.998;6.250;2023-08-31T11:19:07;18.20;99.90
16666;DHT22;8446;50.998;6.250;2023-08-31T11:21:36;17.90;99.90
16666;DHT22;8446;50.998;6.250;2023-08-31T11:24:04;17.80;99.90
16666;DHT22;8446;50.998;6.250;2023-08-31T11:26:32;17.70;99.90
16666;DHT22;8446;50.998;6.250;2023-08-31T11:28:59;17.80;99.90
16666;DHT22;8446;50.998;6.250;2023-08-31T11:31:26;18.00;99.90
16666;DHT22;8446;50.998;6.250;2023-08-31T11:33:54;17.90;99.90
16666;DHT22;8446;50.998;6.250;2023-08-31T11:36:23;18.00;99.90
16666;DHT22;8446;50.998;6.250;2023-08-31T11:38:51;18.40;99.90
16666;DHT22;8446;50.998;6.250;2023-08-31T11:41:17;18.80;99.90
16666;DHT22;8446;50.998;6.250;2023-08-31T11:43:44;19.20;99.90
16666;DHT22;8446;50.998;6.250;2023-08-31T11:46:11;19.10;99.90
16666;DHT22;8446;50.998;6.250;2023-08-31T11:48:39;19.00;99.90
16666;DHT22;8446;50.998;6.250;2023-08-31T11:51:06;19.00;99.90
16666;DHT22;8446;50.998;6.250;2023-08-31T11:53:34;18.60;99.90
16666;DHT22;8446;50.998;6.250;2023-08-31T11:56:02;18.20;99.90
16666;DHT22;8446;50.998;6.250;2023-08-31T11:58:29;17.90;99.90
16666;DHT22;8446;50.998;6.250;2023-08-31T12:00:59;17.80;99.90
16666;DHT22;8446;50.998;6.250;2023-08-31T12:03:27;17.70;99.90
16666;DHT22;8446;50.998;6.250;2023-08-31T12:05:54;17.60;99.90
16666;DHT22;8446;50.998;6.250;2023-08-31T12:08:24;17.60;99.90
16666;DHT22;8446;50.998;6.250;2023-08-31T12:10:53;17.60;99.90
16666;DHT22;8446;50.998;6.250;2023-08-31T12:13:25;17.60;99.90
16666;DHT22;8446;50.998;6.250;2023-08-31T12:15:54;17.80;99.90
16666;DHT22;8446;50.998;6.250;2023-08-31T12:18:21;18.10;99.90
16666;DHT22;8446;50.998;6.250;2023-08-31T12:20:50;18.80;99.90
16666;DHT22;8446;50.998;6.250;2023-08-31T12:23:17;19.30;99.90
16666;DHT22;8446;50.998;6.250;2023-08-31T12:25:47;19.60;99.90
16666;DHT22;8446;50.998;6.250;2023-08-31T12:28:16;19.30;99.90
16666;DHT22;8446;50.998;6.250;2023-08-31T12:30:47;19.10;99.90
16666;DHT22;8446;50.998;6.250;2023-08-31T12:33:14;19.10;99.90
16666;DHT22;8446;50.998;6.250;2023-08-31T12:35:41;18.90;99.90
16666;DHT22;8446;50.998;6.250;2023-08-31T12:38:07;18.70;99.90
16666;DHT22;8446;50.998;6.250;2023-08-31T12:40:34;18.50;99.90
16666;DHT22;8446;50.998;6.250;2023-08-31T12:43:01;18.50;99.90
16666;DHT22;8446;50.998;6.250;2023-08-31T12:45:30;19.50;99.90
16666;DHT22;8446;50.998;6.250;2023-08-31T12:47:56;19.70;99.90
16666;DHT22;8446;50.998;6.250;2023-08-31T12:50:24;19.50;99.90
16666;DHT22;8446;50.998;6.250;2023-08-31T12:52:50;19.60;99.90
16666;DHT22;8446;50.998;6.250;2023-08-31T12:55:17;19.60;99.90
16666;DHT22;8446;50.998;6.250;2023-08-31T12:57:45;19.80;99.90
16666;DHT22;8446;50.998;6.250;2023-08-31T13:00:14;19.90;99.90
16666;DHT22;8446;50.998;6.250;2023-08-31T13:02:42;19.70;99.90
16666;DHT22;8446;50.998;6.250;2023-08-31T13:05:11;20.00;99.90
16666;DHT22;8446;50.998;6.250;2023-08-31T13:07:38;19.80;99.90
16666;DHT22;8446;50.998;6.250;2023-08-31T13:10:05;19.70;99.90
16666;DHT22;8446;50.998;6.250;2023-08-31T13:12:33;20.10;99.90
16666;DHT22;8446;50.998;6.250;2023-08-31T13:15:00;20.10;99.90
16666;DHT22;8446;50.998;6.250;2023-08-31T13:17:28;20.10;99.90
16666;DHT22;8446;50.998;6.250;2023-08-31T13:19:56;19.70;99.90
16666;DHT22;8446;50.998;6.250;2023-08-31T13:22:24;19.30;99.90
16666;DHT22;8446;50.998;6.250;2023-08-31T13:24:51;19.20;99.90
16666;DHT22;8446;50.998;6.250;2023-08-31T13:27:18;18.90;99.90
16666;DHT22;8446;50.998;6.250;2023-08-31T13:29:45;19.30;99.90
16666;DHT22;8446;50.998;6.250;2023-08-31T13:32:12;19.80;99.90
16666;DHT22;8446;50.998;6.250;2023-08-31T13:34:39;19.70;99.90
16666;DHT22;8446;50.998;6.250;2023-08-31T13:37:07;19.90;99.90
16666;DHT22;8446;50.998;6.250;2023-08-31T13:39:35;19.60;99.90
16666;DHT22;8446;50.998;6.250;2023-08-31T13:42:02;19.60;99.90
16666;DHT22;8446;50.998;6.250;2023-08-31T13:44:29;20.00;99.90
16666;DHT22;8446;50.998;6.250;2023-08-31T13:46:56;20.20;99.90
16666;DHT22;8446;50.998;6.250;2023-08-31T13:49:23;20.10;99.90
16666;DHT22;8446;50.998;6.250;2023-08-31T13:51:50;19.60;99.90
16666;DHT22;8446;50.998;6.250;2023-08-31T13:54:18;18.80;99.90
16666;DHT22;8446;50.998;6.250;2023-08-31T13:56:45;18.30;99.90
16666;DHT22;8446;50.998;6.250;2023-08-31T13:59:12;18.10;99.90
16666;DHT22;8446;50.998;6.250;2023-08-31T14:01:38;18.00;99.90
16666;DHT22;8446;50.998;6.250;2023-08-31T14:04:06;17.30;99.90
16666;DHT22;8446;50.998;6.250;2023-08-31T14:06:32;17.30;99.90
16666;DHT22;8446;50.998;6.250;2023-08-31T14:08:59;18.40;99.90
16666;DHT22;8446;50.998;6.250;2023-08-31T14:11:28;18.80;99.90
16666;DHT22;8446;50.998;6.250;2023-08-31T14:14:02;19.20;99.90
16666;DHT22;8446;50.998;6.250;2023-08-31T14:16:30;19.20;99.90
16666;DHT22;8446;50.998;6.250;2023-08-31T14:18:57;18.90;99.90
16666;DHT22;8446;50.998;6.250;2023-08-31T14:21:24;18.70;99.90
16666;DHT22;8446;50.998;6.250;2023-08-31T14:23:51;18.80;99.90
16666;DHT22;8446;50.998;6.250;2023-08-31T14:26:21;19.20;99.90
16666;DHT22;8446;50.998;6.250;2023-08-31T14:28:50;19.60;99.90
16666;DHT22;8446;50.998;6.250;2023-08-31T14:31:17;19.90;99.90
16666;DHT22;8446;50.998;6.250;2023-08-31T14:33:44;20.00;99.90
16666;DHT22;8446;50.998;6.250;2023-08-31T14:36:12;19.80;99.90
16666;DHT22;8446;50.998;6.250;2023-08-31T14:38:39;19.70;99.90
16666;DHT22;8446;50.998;6.250;2023-08-31T14:41:05;20.00;99.90
16666;DHT22;8446;50.998;6.250;2023-08-31T14:43:32;20.00;99.90
16666;DHT22;8446;50.998;6.250;2023-08-31T14:46:01;20.00;99.90
16666;DHT22;8446;50.998;6.250;2023-08-31T14:48:28;19.90;99.90
16666;DHT22;8446;50.998;6.250;2023-08-31T14:50:55;19.90;99.90
16666;DHT22;8446;50.998;6.250;2023-08-31T14:53:24;20.10;99.90
16666;DHT22;8446;50.998;6.250;2023-08-31T14:55:51;20.20;99.90
16666;DHT22;8446;50.998;6.250;2023-08-31T14:58:17;19.90;99.90
16666;DHT22;8446;50.998;6.250;2023-08-31T15:00:44;19.40;99.90
16666;DHT22;8446;50.998;6.250;2023-08-31T15:03:13;19.00;99.90
16666;DHT22;8446;50.998;6.250;2023-08-31T15:05:40;18.80;99.90
16666;DHT22;8446;50.998;6.250;2023-08-31T15:08:07;19.00;99.90
16666;DHT22;8446;50.998;6.250;2023-08-31T15:10:34;18.90;99.90
16666;DHT22;8446;50.998;6.250;2023-08-31T15:13:01;19.00;99.90
16666;DHT22;8446;50.998;6.250;2023-08-31T15:15:28;19.00;99.90
16666;DHT22;8446;50.998;6.250;2023-08-31T15:17:55;19.00;99.90
16666;DHT22;8446;50.998;6.250;2023-08-31T15:20:24;18.90;99.90
16666;DHT22;8446;50.998;6.250;2023-08-31T15:22:51;18.70;99.90
16666;DHT22;8446;50.998;6.250;2023-08-31T15:25:17;18.70;99.90
16666;DHT22;8446;50.998;6.250;2023-08-31T15:27:44;18.70;99.90
16666;DHT22;8446;50.998;6.250;2023-08-31T15:30:12;18.80;99.90
16666;DHT22;8446;50.998;6.250;2023-08-31T15:32:40;19.10;99.90
16666;DHT22;8446;50.998;6.250;2023-08-31T15:35:07;19.20;99.90
16666;DHT22;8446;50.998;6.250;2023-08-31T15:37:36;19.60;99.90
16666;DHT22;8446;50.998;6.250;2023-08-31T15:40:03;19.70;99.90
16666;DHT22;8446;50.998;6.250;2023-08-31T15:42:30;19.90;99.90
16666;DHT22;8446;50.998;6.250;2023-08-31T15:44:57;19.90;99.90
16666;DHT22;8446;50.998;6.250;2023-08-31T15:47:24;19.40;99.90
16666;DHT22;8446;50.998;6.250;2023-08-31T15:49:52;19.20;99.90